Time;durP1;ratioP1;P1;durP2;ratioP2;P2;SDS_P1;SDS_P2;PMS_P1;PMS_P2;Temp;Humidity;BMP_temperature;BMP_pressure;BME280_temperature;BME280_humidity;BME280_pressure;Samples;Min_cycle;Max_cycle;Signal;HPM_P1;HPM_P2
2023/06/25 00:00:29;;;;;;;6.05;5.45;;;23.30;98.80;;;;;;5025791;28;20030;-43
2023/06/25 00:02:57;;;;;;;5.90;5.30;;;23.20;98.80;;;;;;5025534;28;20076;-42
2023/06/25 00:05:23;;;;;;;7.57;5.60;;;23.20;98.90;;;;;;5024666;28;20179;-42
2023/06/25 00:07:48;;;;;;;6.95;5.97;;;23.20;98.90;;;;;;5024913;28;20108;-42
2023/06/25 00:10:14;;;;;;;7.18;5.82;;;23.20;99.10;;;;;;5025818;28;20040;-43
2023/06/25 00:12:40;;;;;;;6.25;5.28;;;23.20;99.10;;;;;;5025368;28;20025;-43
2023/06/25 00:15:06;;;;;;;7.20;5.25;;;23.20;99.20;;;;;;5024078;28;20114;-43
2023/06/25 00:17:31;;;;;;;6.32;5.68;;;23.20;99.20;;;;;;5025866;28;20072;-42
2023/06/25 00:19:59;;;;;;;5.82;5.32;;;23.10;99.50;;;;;;5025577;28;20621;-43
2023/06/25 00:22:24;;;;;;;7.68;5.95;;;23.10;99.30;;;;;;5025027;28;20033;-42
2023/06/25 00:24:50;;;;;;;6.70;5.70;;;23.10;99.40;;;;;;5024221;28;20118;-42
2023/06/25 00:27:16;;;;;;;6.38;5.78;;;23.10;99.50;;;;;;5023992;28;20029;-42
2023/06/25 00:29:41;;;;;;;6.80;6.10;;;23.00;99.50;;;;;;5025090;28;20419;-42
2023/06/25 00:32:15;;;;;;;6.43;5.82;;;23.00;99.50;;;;;;5024853;28;20112;-43
2023/06/25 00:34:44;;;;;;;7.25;5.75;;;23.00;99.60;;;;;;5024404;28;20034;-42
2023/06/25 00:37:16;;;;;;;6.43;5.82;;;23.00;99.60;;;;;;5023871;28;20033;-43
2023/06/25 00:39:47;;;;;;;6.15;5.55;;;22.90;99.70;;;;;;5025213;28;20028;-43
2023/06/25 00:42:13;;;;;;;6.57;5.97;;;22.90;99.70;;;;;;5023816;28;20036;-43
2023/06/25 00:44:41;;;;;;;7.28;6.00;;;22.90;99.70;;;;;;5024653;28;20041;-43
2023/06/25 00:47:12;;;;;;;6.20;5.57;;;22.90;99.80;;;;;;5024938;28;20017;-43
2023/06/25 00:49:46;;;;;;;6.53;5.82;;;22.90;99.80;;;;;;5025377;28;20100;-43
2023/06/25 00:52:13;;;;;;;6.20;5.60;;;22.80;99.90;;;;;;5023571;28;20040;-43
2023/06/25 00:54:43;;;;;;;6.28;5.68;;;22.80;99.90;;;;;;5021306;28;20079;-41
2023/06/25 00:57:15;;;;;;;6.90;5.82;;;22.80;99.90;;;;;;5023675;28;20037;-43
2023/06/25 00:59:42;;;;;;;6.85;5.68;;;22.70;99.90;;;;;;5024319;28;20037;-43
2023/06/25 01:02:25;;;;;;;6.20;5.50;;;22.70;99.90;;;;;;5024462;28;20544;-43
2023/06/25 01:05:04;;;;;;;6.15;5.35;;;22.60;99.90;;;;;;5023472;28;20046;-43
2023/06/25 01:07:32;;;;;;;6.38;5.78;;;22.60;99.90;;;;;;5025248;28;20033;-43
2023/06/25 01:09:58;;;;;;;6.65;5.80;;;22.60;99.90;;;;;;5024100;28;20024;-41
2023/06/25 01:12:23;;;;;;;8.27;6.38;;;22.60;99.90;;;;;;5022528;28;20037;-42
2023/06/25 01:14:49;;;;;;;6.63;6.00;;;22.60;99.90;;;;;;5024803;28;20029;-42
2023/06/25 01:17:21;;;;;;;7.43;6.15;;;22.50;99.90;;;;;;5024076;28;20033;-43
2023/06/25 01:19:47;;;;;;;6.57;5.78;;;22.50;99.90;;;;;;5024049;28;20036;-43
2023/06/25 01:22:15;;;;;;;8.88;6.18;;;22.50;99.90;;;;;;5024103;28;20025;-41
2023/06/25 01:24:44;;;;;;;7.47;6.15;;;22.40;99.90;;;;;;5024235;28;20040;-43
2023/06/25 01:27:11;;;;;;;8.00;6.47;;;22.40;99.90;;;;;;5023687;28;20381;-43
2023/06/25 01:29:39;;;;;;;7.38;6.38;;;22.40;99.90;;;;;;5024836;28;20025;-42
2023/06/25 01:32:07;;;;;;;8.48;6.90;;;22.40;99.90;;;;;;5025095;28;20033;-42
2023/06/25 01:34:32;;;;;;;8.00;7.10;;;22.40;99.90;;;;;;5023898;28;20017;-43
2023/06/25 01:36:58;;;;;;;6.18;5.57;;;22.30;99.90;;;;;;5024498;28;20030;-43
2023/06/25 01:39:26;;;;;;;6.93;5.82;;;22.30;99.90;;;;;;5023551;28;20021;-44
2023/06/25 01:41:52;;;;;;;7.20;6.50;;;22.30;99.90;;;;;;5024196;28;20033;-42
2023/06/25 01:44:28;;;;;;;7.43;6.72;;;22.30;99.90;;;;;;5023257;28;20063;-43
2023/06/25 01:46:58;;;;;;;7.43;6.50;;;22.20;99.90;;;;;;5013867;28;20440;-43
2023/06/25 01:49:25;;;;;;;7.65;6.72;;;22.20;99.90;;;;;;5023456;28;20032;-44
2023/06/25 01:51:51;;;;;;;7.88;6.75;;;22.20;99.90;;;;;;5024009;28;20834;-43
2023/06/25 01:54:17;;;;;;;6.70;6.10;;;22.20;99.90;;;;;;5021365;28;20029;-43
2023/06/25 01:56:43;;;;;;;8.25;6.50;;;22.20;99.90;;;;;;5023986;28;20100;-42
2023/06/25 01:59:09;;;;;;;7.28;6.57;;;22.10;99.90;;;;;;5023972;28;20040;-42
2023/06/25 02:01:38;;;;;;;7.35;6.63;;;22.10;99.90;;;;;;5022710;28;20030;-42
2023/06/25 02:04:03;;;;;;;7.40;6.60;;;22.10;99.90;;;;;;5024527;28;20029;-41
2023/06/25 02:06:29;;;;;;;6.78;6.13;;;22.10;99.90;;;;;;5022612;28;20041;-43
2023/06/25 02:08:54;;;;;;;7.13;6.32;;;22.00;99.90;;;;;;5023436;28;20586;-43
2023/06/25 02:11:20;;;;;;;8.05;6.70;;;22.00;99.90;;;;;;5023386;28;20061;-42
2023/06/25 02:13:46;;;;;;;7.90;7.03;;;22.00;99.90;;;;;;5023185;28;20026;-42
2023/06/25 02:16:11;;;;;;;7.20;6.50;;;22.00;99.90;;;;;;5022205;28;20389;-43
2023/06/25 02:18:40;;;;;;;8.75;7.00;;;22.00;99.90;;;;;;5023414;28;20377;-43
2023/06/25 02:21:06;;;;;;;7.18;6.40;;;21.90;99.90;;;;;;5023467;28;20055;-42
2023/06/25 02:23:34;;;;;;;6.72;6.13;;;21.90;99.90;;;;;;5021964;28;20480;-43
2023/06/25 02:26:00;;;;;;;7.75;6.85;;;21.90;99.90;;;;;;5024172;28;20033;-43
2023/06/25 02:28:28;;;;;;;7.80;6.50;;;21.90;99.90;;;;;;5022929;28;20091;-42
2023/06/25 02:30:53;;;;;;;7.50;6.80;;;21.90;99.90;;;;;;5023254;28;20020;-43
2023/06/25 02:33:19;;;;;;;7.75;6.30;;;21.80;99.90;;;;;;5023247;28;20030;-42
2023/06/25 02:35:45;;;;;;;7.32;6.63;;;21.80;99.90;;;;;;5023225;28;20184;-42
2023/06/25 02:38:10;;;;;;;8.98;6.93;;;21.80;99.90;;;;;;5023219;28;20034;-42
2023/06/25 02:40:36;;;;;;;7.90;7.10;;;21.80;99.90;;;;;;5024135;28;20035;-42
2023/06/25 02:43:02;;;;;;;7.68;6.97;;;21.80;99.90;;;;;;5023386;28;20025;-41
2023/06/25 02:45:27;;;;;;;8.02;7.22;;;21.70;99.90;;;;;;5021841;28;20046;-42
2023/06/25 02:47:55;;;;;;;10.27;7.30;;;21.70;99.90;;;;;;5023574;28;20028;-43
2023/06/25 02:50:21;;;;;;;8.65;7.55;;;21.70;99.90;;;;;;5024843;28;20037;-43
2023/06/25 02:52:47;;;;;;;8.18;7.32;;;21.70;99.90;;;;;;5027045;28;20028;-43
2023/06/25 02:55:15;;;;;;;9.07;7.55;;;21.60;99.90;;;;;;5026557;28;20040;-42
2023/06/25 02:57:41;;;;;;;8.13;7.30;;;21.60;99.90;;;;;;5026056;28;20421;-43
2023/06/25 03:00:13;;;;;;;7.68;6.88;;;21.60;99.90;;;;;;5026776;28;20029;-43
2023/06/25 03:02:38;;;;;;;7.07;6.38;;;21.60;99.90;;;;;;5026270;28;20033;-42
2023/06/25 03:05:04;;;;;;;8.02;7.05;;;21.60;99.90;;;;;;5025836;28;20087;-43
2023/06/25 03:07:30;;;;;;;8.35;7.30;;;21.60;99.90;;;;;;5026402;28;20010;-42
2023/06/25 03:09:55;;;;;;;8.95;6.80;;;21.50;99.90;;;;;;5027095;28;20053;-42
2023/06/25 03:12:21;;;;;;;7.40;6.65;;;21.60;99.90;;;;;;5024070;28;20034;-42
2023/06/25 03:14:46;;;;;;;10.25;7.03;;;21.50;99.90;;;;;;5026689;28;20036;-43
2023/06/25 03:17:12;;;;;;;7.78;6.97;;;21.50;99.90;;;;;;5026536;28;20107;-42
2023/06/25 03:19:37;;;;;;;8.32;7.25;;;21.50;99.90;;;;;;5025967;28;20456;-43
2023/06/25 03:22:03;;;;;;;8.07;7.25;;;21.40;99.90;;;;;;5026785;28;20125;-44
2023/06/25 03:24:32;;;;;;;8.60;7.57;;;21.40;99.90;;;;;;5025910;28;20028;-43
2023/06/25 03:27:04;;;;;;;8.13;7.15;;;21.40;99.90;;;;;;5026309;28;20025;-43
2023/06/25 03:29:29;;;;;;;8.32;6.85;;;21.40;99.90;;;;;;5026377;28;20025;-43
2023/06/25 03:31:55;;;;;;;8.02;7.07;;;21.40;99.90;;;;;;5025729;28;20022;-43
2023/06/25 03:34:20;;;;;;;8.43;7.57;;;21.40;99.90;;;;;;5025438;28;20042;-44
2023/06/25 03:36:46;;;;;;;8.18;6.90;;;21.40;99.90;;;;;;5026545;28;20024;-43
2023/06/25 03:39:12;;;;;;;8.27;7.32;;;21.40;99.90;;;;;;5025498;28;20174;-43
2023/06/25 03:41:37;;;;;;;7.97;6.95;;;21.40;99.90;;;;;;5026180;28;20480;-42
2023/06/25 03:44:03;;;;;;;7.78;6.97;;;21.30;99.90;;;;;;5026030;28;20025;-42
2023/06/25 03:46:28;;;;;;;7.88;6.55;;;21.40;99.90;;;;;;5025582;28;20033;-43
2023/06/25 03:48:54;;;;;;;8.25;7.28;;;21.30;99.90;;;;;;5025949;28;20464;-43
2023/06/25 03:51:19;;;;;;;7.18;6.45;;;21.30;99.90;;;;;;5025662;28;20021;-42
2023/06/25 03:53:48;;;;;;;8.60;6.75;;;21.30;99.90;;;;;;5025845;28;20022;-43
2023/06/25 03:56:13;;;;;;;8.25;7.40;;;21.30;99.90;;;;;;5025707;28;20041;-43
2023/06/25 03:58:39;;;;;;;9.73;7.55;;;21.30;99.90;;;;;;5025418;28;20484;-41
2023/06/25 04:01:04;;;;;;;9.88;7.65;;;21.30;99.90;;;;;;5023815;28;20026;-43
2023/06/25 04:03:30;;;;;;;8.35;7.35;;;21.30;99.90;;;;;;5025655;28;20057;-43
2023/06/25 04:05:55;;;;;;;8.70;7.38;;;21.30;99.90;;;;;;5026025;28;20546;-42
2023/06/25 04:08:21;;;;;;;8.90;7.47;;;21.20;99.90;;;;;;5024559;28;20028;-43
2023/06/25 04:10:47;;;;;;;7.30;6.57;;;21.20;99.90;;;;;;5026060;28;20029;-43
2023/06/25 04:13:12;;;;;;;9.23;7.32;;;21.20;99.90;;;;;;5025147;28;20384;-42
2023/06/25 04:15:38;;;;;;;7.32;6.63;;;21.20;99.90;;;;;;5024734;28;20469;-44
2023/06/25 04:18:03;;;;;;;8.13;7.30;;;21.20;99.90;;;;;;5026162;28;20096;-43
2023/06/25 04:20:29;;;;;;;9.35;7.97;;;21.20;99.90;;;;;;5024863;28;20061;-42
2023/06/25 04:22:55;;;;;;;7.80;7.00;;;21.20;99.90;;;;;;5025200;28;20037;-42
2023/06/25 04:25:21;;;;;;;8.65;7.75;;;21.20;99.90;;;;;;5025047;28;20095;-42
2023/06/25 04:27:48;;;;;;;9.02;6.93;;;21.20;99.90;;;;;;5025702;28;20022;-42
2023/06/25 04:30:16;;;;;;;8.98;7.75;;;21.20;99.90;;;;;;5024109;28;20052;-42
2023/06/25 04:32:49;;;;;;;7.72;6.93;;;21.30;99.90;;;;;;5022990;28;20049;-42
2023/06/25 04:35:16;;;;;;;7.97;7.18;;;21.20;99.90;;;;;;5022553;28;20037;-43
2023/06/25 04:37:45;;;;;;;8.45;7.53;;;21.20;99.90;;;;;;5025763;28;20778;-42
2023/06/25 04:40:12;;;;;;;8.48;7.55;;;21.30;99.90;;;;;;5025605;28;20036;-42
2023/06/25 04:42:38;;;;;;;7.70;6.90;;;21.30;99.90;;;;;;5024116;28;20156;-43
2023/06/25 04:45:08;;;;;;;8.80;7.43;;;21.30;99.90;;;;;;5023470;28;20490;-42
2023/06/25 04:47:33;;;;;;;9.00;7.07;;;21.30;99.90;;;;;;5023526;28;20524;-44
2023/06/25 04:49:59;;;;;;;7.75;6.78;;;21.40;99.90;;;;;;5024975;28;20025;-43
2023/06/25 04:52:28;;;;;;;8.35;7.22;;;21.40;99.90;;;;;;5024168;28;20049;-44
2023/06/25 04:54:53;;;;;;;8.63;7.05;;;21.40;99.90;;;;;;5025680;28;20029;-44
2023/06/25 04:57:19;;;;;;;8.80;7.07;;;21.40;99.90;;;;;;5023308;28;20044;-42
2023/06/25 04:59:56;;;;;;;8.18;7.30;;;21.50;99.90;;;;;;5023245;28;20022;-42
2023/06/25 05:02:22;;;;;;;7.72;6.68;;;21.50;99.90;;;;;;5024168;28;20124;-43
2023/06/25 05:04:48;;;;;;;8.13;7.25;;;21.50;99.90;;;;;;5024633;28;20017;-43
2023/06/25 05:07:13;;;;;;;8.35;7.45;;;21.50;99.90;;;;;;5024303;28;20026;-42
2023/06/25 05:09:39;;;;;;;7.40;6.70;;;21.50;99.90;;;;;;5024680;28;20022;-43
2023/06/25 05:12:05;;;;;;;7.60;6.80;;;21.60;99.90;;;;;;5023444;28;20516;-42
2023/06/25 05:14:31;;;;;;;7.35;6.65;;;21.60;99.90;;;;;;5024284;28;20125;-42
2023/06/25 05:16:59;;;;;;;7.07;6.38;;;21.60;99.90;;;;;;5024510;28;20029;-43
2023/06/25 05:19:25;;;;;;;7.25;6.55;;;21.70;99.90;;;;;;5023197;28;20029;-42
2023/06/25 05:21:50;;;;;;;7.20;6.50;;;21.70;99.90;;;;;;5024716;28;20026;-42
2023/06/25 05:24:16;;;;;;;6.88;5.70;;;21.70;99.90;;;;;;5023422;28;20551;-43
2023/06/25 05:26:41;;;;;;;7.25;5.85;;;21.70;99.90;;;;;;5024439;28;20037;-42
2023/06/25 05:29:07;;;;;;;8.23;6.50;;;21.70;99.90;;;;;;5024848;28;20021;-42
2023/06/25 05:31:33;;;;;;;5.93;5.32;;;21.80;99.90;;;;;;5023391;28;20029;-42
2023/06/25 05:33:58;;;;;;;6.28;5.68;;;21.80;99.90;;;;;;5024566;28;20029;-42
2023/06/25 05:36:24;;;;;;;5.88;5.28;;;21.80;99.90;;;;;;5023926;28;20352;-42
2023/06/25 05:38:50;;;;;;;5.85;5.25;;;21.90;99.90;;;;;;5023468;28;20499;-42
2023/06/25 05:41:15;;;;;;;5.80;5.30;;;21.90;99.90;;;;;;5024195;28;20552;-43
2023/06/25 05:43:41;;;;;;;5.97;5.38;;;22.00;99.90;;;;;;5024176;28;20029;-43
2023/06/25 05:46:11;;;;;;;6.57;5.90;;;22.00;99.90;;;;;;5023554;28;20564;-42
2023/06/25 05:48:40;;;;;;;5.28;4.68;;;22.10;99.90;;;;;;5023901;28;20132;-44
2023/06/25 05:51:06;;;;;;;6.15;5.55;;;22.10;99.90;;;;;;5024494;28;20798;-42
2023/06/25 05:53:42;;;;;;;6.60;5.22;;;22.10;99.90;;;;;;5022609;28;20060;-42
2023/06/25 05:56:08;;;;;;;6.47;5.32;;;22.10;99.90;;;;;;5023927;28;20554;-42
2023/06/25 05:58:36;;;;;;;5.50;5.00;;;22.20;99.90;;;;;;5024025;28;20032;-42
2023/06/25 06:01:03;;;;;;;5.88;5.28;;;22.20;99.90;;;;;;5023550;28;20034;-42
2023/06/25 06:03:28;;;;;;;6.07;5.45;;;22.30;99.90;;;;;;5022511;28;20034;-42
2023/06/25 06:05:56;;;;;;;5.47;4.97;;;22.30;99.90;;;;;;5024567;28;20038;-43
2023/06/25 06:08:21;;;;;;;5.63;5.00;;;22.30;99.90;;;;;;5022739;28;20059;-44
2023/06/25 06:10:48;;;;;;;5.55;5.05;;;22.40;99.90;;;;;;5021602;28;20040;-43
2023/06/25 06:13:14;;;;;;;5.85;5.20;;;22.40;99.90;;;;;;5022922;28;20020;-42
2023/06/25 06:15:40;;;;;;;5.57;5.05;;;22.50;99.90;;;;;;5022753;28;20041;-42
2023/06/25 06:18:06;;;;;;;5.50;5.00;;;22.50;99.90;;;;;;5023307;28;20029;-42
2023/06/25 06:20:34;;;;;;;5.55;5.05;;;22.50;99.90;;;;;;5021750;28;20045;-41
2023/06/25 06:23:02;;;;;;;5.40;4.90;;;22.60;99.90;;;;;;5023651;28;20100;-43
2023/06/25 06:25:27;;;;;;;5.32;4.70;;;22.60;99.90;;;;;;5025215;28;20068;-42
2023/06/25 06:27:54;;;;;;;5.43;4.75;;;22.60;99.90;;;;;;5027029;28;20132;-43
2023/06/25 06:30:20;;;;;;;5.57;5.07;;;22.70;99.90;;;;;;5024979;28;20033;-43
2023/06/25 06:32:46;;;;;;;6.28;4.97;;;22.70;99.90;;;;;;5023032;28;20026;-43
2023/06/25 06:35:11;;;;;;;5.90;5.32;;;22.80;99.90;;;;;;5026250;28;20637;-43
2023/06/25 06:37:37;;;;;;;5.93;5.32;;;22.80;99.90;;;;;;5026029;28;20025;-43
2023/06/25 06:40:06;;;;;;;5.88;5.28;;;22.90;99.90;;;;;;5026231;28;20038;-42
2023/06/25 06:42:34;;;;;;;5.43;4.93;;;22.90;99.90;;;;;;5024741;28;20384;-43
2023/06/25 06:45:00;;;;;;;5.65;5.00;;;23.00;99.90;;;;;;5027335;28;20041;-42
2023/06/25 06:47:31;;;;;;;6.25;5.65;;;23.00;99.90;;;;;;5025158;28;20526;-42
2023/06/25 06:49:58;;;;;;;6.15;5.55;;;23.00;99.90;;;;;;5024952;28;20599;-42
2023/06/25 06:52:25;;;;;;;5.05;4.53;;;23.00;99.90;;;;;;5026887;28;20354;-42
2023/06/25 06:54:50;;;;;;;6.35;5.72;;;23.10;99.90;;;;;;5026056;28;20021;-42
2023/06/25 06:57:16;;;;;;;7.40;5.38;;;23.20;99.90;;;;;;5024604;28;20063;-43
2023/06/25 06:59:41;;;;;;;6.10;5.50;;;23.20;99.90;;;;;;5026562;28;20392;-43
2023/06/25 07:02:07;;;;;;;5.43;4.93;;;23.20;99.90;;;;;;5022140;28;20025;-43
2023/06/25 07:04:51;;;;;;;5.57;5.07;;;23.30;99.90;;;;;;5025333;28;20021;-42
2023/06/25 07:07:17;;;;;;;5.90;5.32;;;23.30;99.90;;;;;;5023803;28;20555;-43
2023/06/25 07:09:53;;;;;;;5.88;5.28;;;23.40;99.90;;;;;;5026308;28;20028;-43
2023/06/25 07:12:19;;;;;;;6.82;5.57;;;23.40;99.90;;;;;;5022081;28;20405;-42
2023/06/25 07:14:45;;;;;;;5.32;4.82;;;23.40;99.90;;;;;;5026512;28;20040;-42
2023/06/25 07:17:14;;;;;;;5.43;4.93;;;23.50;99.90;;;;;;5025856;28;20033;-42
2023/06/25 07:19:39;;;;;;;5.90;5.15;;;23.50;99.90;;;;;;5026279;28;20056;-41
2023/06/25 07:22:05;;;;;;;5.35;4.85;;;23.50;99.90;;;;;;5023500;28;20057;-43
2023/06/25 07:24:31;;;;;;;5.20;4.72;;;23.60;99.90;;;;;;5024766;28;20036;-42
2023/06/25 07:26:56;;;;;;;7.07;5.53;;;23.60;99.90;;;;;;5025221;28;20629;-43
2023/06/25 07:29:22;;;;;;;7.03;6.05;;;23.60;99.90;;;;;;5024644;28;20044;-43
2023/06/25 07:31:48;;;;;;;5.38;4.88;;;23.70;99.90;;;;;;5025707;28;20040;-44
2023/06/25 07:34:13;;;;;;;6.70;5.97;;;23.80;99.90;;;;;;5025691;28;20028;-43
2023/06/25 07:36:39;;;;;;;6.30;5.30;;;23.80;99.90;;;;;;5024965;28;20052;-43
2023/06/25 07:39:04;;;;;;;4.85;4.45;;;23.80;99.90;;;;;;5024011;28;20037;-43
2023/06/25 07:41:30;;;;;;;6.15;5.50;;;23.80;99.90;;;;;;5024438;28;20465;-42
2023/06/25 07:43:56;;;;;;;5.53;5.03;;;23.90;99.90;;;;;;5027029;28;20061;-46
2023/06/25 07:46:22;;;;;;;6.10;5.15;;;23.90;99.90;;;;;;5016519;28;20037;-42
2023/06/25 07:48:48;;;;;;;6.07;5.57;;;24.00;99.90;;;;;;5026246;28;20124;-45
2023/06/25 07:51:14;;;;;;;6.80;6.10;;;24.00;99.90;;;;;;5025676;28;20553;-43
2023/06/25 07:53:39;;;;;;;6.78;5.75;;;24.10;99.90;;;;;;5025072;28;20048;-43
2023/06/25 07:56:05;;;;;;;5.38;4.85;;;24.10;99.90;;;;;;5024404;28;20055;-43
2023/06/25 07:58:30;;;;;;;5.13;4.63;;;24.20;99.90;;;;;;5025715;28;20037;-43
2023/06/25 08:00:56;;;;;;;4.97;4.32;;;24.20;99.90;;;;;;5025794;28;20068;-43
2023/06/25 08:03:22;;;;;;;5.93;5.10;;;24.20;99.90;;;;;;5025402;28;20134;-44
2023/06/25 08:05:48;;;;;;;4.32;3.92;;;24.30;99.90;;;;;;5024911;28;20072;-43
2023/06/25 08:08:13;;;;;;;4.85;4.35;;;24.40;99.90;;;;;;5024664;28;20419;-43
2023/06/25 08:10:39;;;;;;;5.18;4.68;;;24.40;99.90;;;;;;5025255;28;20112;-43
2023/06/25 08:13:05;;;;;;;4.45;4.00;;;24.50;99.90;;;;;;5024357;28;20453;-43
2023/06/25 08:15:33;;;;;;;4.25;3.85;;;24.50;99.90;;;;;;5023889;28;20057;-43
2023/06/25 08:17:59;;;;;;;5.05;4.53;;;24.50;99.90;;;;;;5025274;28;20037;-43
2023/06/25 08:20:24;;;;;;;4.82;4.32;;;24.60;99.90;;;;;;5024475;28;20017;-44
2023/06/25 08:22:50;;;;;;;4.70;4.13;;;24.60;99.90;;;;;;5023847;28;20068;-43
2023/06/25 08:25:20;;;;;;;4.93;3.95;;;24.70;99.90;;;;;;5025759;28;20041;-43
2023/06/25 08:27:46;;;;;;;4.80;4.40;;;24.70;99.90;;;;;;5023502;28;20026;-43
2023/06/25 08:30:12;;;;;;;4.65;4.13;;;24.70;99.90;;;;;;5024077;28;20070;-43
2023/06/25 08:32:37;;;;;;;4.32;3.92;;;24.80;99.90;;;;;;5025537;28;20196;-43
2023/06/25 08:35:03;;;;;;;4.50;4.13;;;24.80;99.90;;;;;;5024898;28;20031;-43
2023/06/25 08:37:29;;;;;;;4.18;3.78;;;24.80;99.90;;;;;;5025254;28;20057;-43
2023/06/25 08:39:54;;;;;;;3.95;3.65;;;24.90;99.90;;;;;;5024188;28;20030;-42
2023/06/25 08:42:20;;;;;;;3.50;3.20;;;24.90;99.90;;;;;;5023579;28;20057;-42
2023/06/25 08:44:46;;;;;;;4.78;4.28;;;25.00;99.90;;;;;;5025098;28;20029;-43
2023/06/25 08:47:23;;;;;;;4.97;4.47;;;25.10;99.90;;;;;;5024610;28;20045;-43
2023/06/25 08:49:54;;;;;;;5.03;4.53;;;25.20;99.90;;;;;;5024104;28;20033;-42
2023/06/25 08:52:22;;;;;;;4.28;3.88;;;25.30;99.90;;;;;;5017808;28;20029;-47
2023/06/25 08:54:49;;;;;;;3.50;3.20;;;25.40;99.90;;;;;;5025268;28;20460;-42
2023/06/25 08:57:25;;;;;;;4.20;3.80;;;25.40;99.70;;;;;;5024522;28;20083;-43
2023/06/25 08:59:51;;;;;;;3.50;3.20;;;25.50;99.50;;;;;;5024880;28;20526;-43
2023/06/25 09:02:19;;;;;;;2.70;2.50;;;25.60;99.40;;;;;;5023586;28;20013;-43
2023/06/25 09:04:48;;;;;;;3.60;3.30;;;25.70;99.30;;;;;;5022617;28;20022;-43
2023/06/25 09:07:15;;;;;;;4.10;3.33;;;25.70;98.90;;;;;;5023683;28;20488;-43
2023/06/25 09:09:51;;;;;;;3.67;3.20;;;25.70;98.50;;;;;;5023579;28;20064;-43
2023/06/25 09:12:23;;;;;;;3.70;3.05;;;25.80;98.30;;;;;;5024693;28;20030;-44
2023/06/25 09:14:52;;;;;;;3.53;3.22;;;25.90;98.00;;;;;;5024843;28;20028;-42
2023/06/25 09:17:21;;;;;;;3.80;3.42;;;26.00;98.00;;;;;;5021607;28;20029;-43
2023/06/25 09:19:47;;;;;;;3.58;3.28;;;26.00;97.80;;;;;;5024423;28;20017;-43
2023/06/25 09:22:13;;;;;;;3.00;2.70;;;26.10;98.00;;;;;;5025300;28;20029;-43
2023/06/25 09:24:42;;;;;;;3.42;3.13;;;26.10;97.40;;;;;;5023416;28;20469;-43
2023/06/25 09:27:10;;;;;;;3.63;3.30;;;26.20;97.30;;;;;;5013600;28;20025;-42
2023/06/25 09:29:39;;;;;;;3.60;3.30;;;26.20;97.10;;;;;;5024323;28;20040;-42
2023/06/25 09:32:11;;;;;;;3.55;3.10;;;26.30;96.80;;;;;;5023611;28;20013;-43
2023/06/25 09:34:41;;;;;;;5.18;3.97;;;26.40;96.80;;;;;;5024342;28;20548;-43
2023/06/25 09:37:06;;;;;;;3.97;3.60;;;26.40;96.70;;;;;;5022177;28;20114;-42
2023/06/25 09:39:32;;;;;;;4.35;3.72;;;26.60;96.80;;;;;;5023849;28;20132;-43
2023/06/25 09:42:00;;;;;;;3.88;3.58;;;26.60;96.70;;;;;;5022968;28;20789;-42
2023/06/25 09:44:27;;;;;;;4.60;3.80;;;26.70;96.60;;;;;;5024084;28;20037;-42
2023/06/25 09:47:06;;;;;;;4.57;4.18;;;26.90;96.60;;;;;;5022329;28;20030;-42
2023/06/25 09:49:33;;;;;;;5.22;3.97;;;26.90;96.40;;;;;;5022370;28;20073;-42
2023/06/25 09:52:15;;;;;;;3.97;3.67;;;27.00;96.40;;;;;;5023758;28;20018;-42
2023/06/25 09:54:47;;;;;;;5.70;4.10;;;27.00;96.30;;;;;;5023458;28;20029;-43
2023/06/25 09:57:18;;;;;;;5.03;3.70;;;27.00;96.20;;;;;;5022305;28;20045;-42
2023/06/25 09:59:43;;;;;;;6.60;3.70;;;27.10;96.20;;;;;;5025616;28;20030;-42
2023/06/25 10:02:09;;;;;;;3.75;3.35;;;27.10;96.10;;;;;;5028167;28;20107;-43
2023/06/25 10:04:35;;;;;;;3.50;3.20;;;27.10;95.90;;;;;;5028070;28;20025;-43
2023/06/25 10:07:03;;;;;;;3.83;3.40;;;27.20;95.70;;;;;;5026493;28;20099;-43
2023/06/25 10:09:28;;;;;;;4.07;3.67;;;27.20;95.50;;;;;;5026677;28;20104;-43
2023/06/25 10:12:05;;;;;;;4.00;3.60;;;27.20;95.40;;;;;;5028390;28;20108;-42
2023/06/25 10:14:39;;;;;;;3.65;3.35;;;27.20;95.50;;;;;;5027527;28;20025;-43
2023/06/25 10:17:08;;;;;;;3.35;3.05;;;27.20;95.60;;;;;;5026626;28;20148;-43
2023/06/25 10:19:34;;;;;;;3.50;3.20;;;27.20;95.60;;;;;;5021888;28;20127;-43
2023/06/25 10:22:12;;;;;;;3.55;3.20;;;27.20;95.70;;;;;;5027245;28;20804;-43
2023/06/25 10:24:57;;;;;;;3.65;3.35;;;27.30;95.30;;;;;;5027663;28;20018;-43
2023/06/25 10:27:26;;;;;;;3.80;3.50;;;27.40;95.20;;;;;;5025702;28;20437;-43
2023/06/25 10:29:59;;;;;;;3.28;2.95;;;27.40;94.90;;;;;;5024188;28;20094;-43
2023/06/25 10:32:42;;;;;;;3.30;3.00;;;27.50;94.80;;;;;;5027462;28;20795;-42
2023/06/25 10:35:08;;;;;;;3.30;3.00;;;27.50;94.70;;;;;;5027048;28;20476;-43
2023/06/25 10:37:34;;;;;;;3.30;3.00;;;27.60;94.40;;;;;;5026332;28;20485;-42
2023/06/25 10:40:11;;;;;;;3.53;3.00;;;27.60;94.40;;;;;;5026337;28;20040;-42
2023/06/25 10:42:37;;;;;;;3.20;2.90;;;27.70;94.40;;;;;;5027190;28;20075;-43
2023/06/25 10:45:07;;;;;;;4.05;3.08;;;27.70;94.20;;;;;;5027458;28;20514;-42
2023/06/25 10:47:33;;;;;;;4.93;2.85;;;27.70;94.20;;;;;;5027325;28;20064;-42
2023/06/25 10:49:59;;;;;;;4.20;3.60;;;27.90;94.10;;;;;;5021984;28;20028;-43
2023/06/25 10:52:25;;;;;;;4.90;4.03;;;27.90;93.90;;;;;;5024827;28;20560;-43
2023/06/25 10:54:54;;;;;;;4.28;3.88;;;28.10;93.50;;;;;;5025670;28;20022;-43
2023/06/25 10:57:20;;;;;;;3.30;3.08;;;28.10;93.30;;;;;;5024965;28;20134;-43
2023/06/25 10:59:45;;;;;;;3.25;2.95;;;28.20;93.30;;;;;;5025715;28;20685;-43
2023/06/25 11:02:18;;;;;;;3.33;3.03;;;28.30;93.30;;;;;;5024094;28;20032;-43
2023/06/25 11:04:51;;;;;;;4.57;3.03;;;28.30;93.10;;;;;;5026401;28;20017;-43
2023/06/25 11:07:21;;;;;;;4.05;3.65;;;28.20;92.90;;;;;;5026139;28;20033;-42
2023/06/25 11:10:00;;;;;;;3.15;2.80;;;28.20;92.60;;;;;;5024478;28;20026;-42
2023/06/25 11:12:26;;;;;;;3.03;2.75;;;28.20;92.60;;;;;;5025205;28;20112;-43
2023/06/25 11:14:52;;;;;;;3.53;2.90;;;28.20;92.50;;;;;;5025500;28;20120;-44
2023/06/25 11:17:17;;;;;;;3.90;3.50;;;28.30;92.40;;;;;;5025704;28;20108;-43
2023/06/25 11:19:49;;;;;;;4.13;3.63;;;28.40;91.90;;;;;;5025550;28;20850;-44
2023/06/25 11:22:15;;;;;;;3.65;3.35;;;28.50;91.50;;;;;;5026953;28;20082;-43
2023/06/25 11:24:40;;;;;;;3.90;3.60;;;28.60;91.40;;;;;;5024570;28;20420;-44
2023/06/25 11:27:06;;;;;;;3.47;3.17;;;28.70;91.40;;;;;;5026305;28;20572;-42
2023/06/25 11:29:42;;;;;;;3.08;2.75;;;28.80;91.20;;;;;;5025712;28;20057;-43
2023/06/25 11:32:11;;;;;;;3.25;2.90;;;28.90;91.20;;;;;;5024720;28;20033;-42
2023/06/25 11:34:51;;;;;;;3.28;2.97;;;28.90;91.10;;;;;;5025276;28;20036;-43
2023/06/25 11:37:22;;;;;;;3.88;3.53;;;28.90;90.60;;;;;;5025268;28;20036;-43
2023/06/25 11:39:49;;;;;;;3.42;3.13;;;28.90;89.80;;;;;;5024152;28;20029;-44
2023/06/25 11:42:20;;;;;;;4.50;4.10;;;29.00;89.30;;;;;;5026069;28;20033;-46
2023/06/25 11:44:58;;;;;;;3.85;3.53;;;29.00;89.30;;;;;;5023562;28;20079;-43
2023/06/25 11:47:23;;;;;;;3.58;3.28;;;29.20;89.50;;;;;;5025396;28;20045;-43
2023/06/25 11:49:59;;;;;;;3.30;3.00;;;29.20;89.50;;;;;;5025913;28;20066;-43
2023/06/25 11:52:25;;;;;;;3.47;3.17;;;29.20;88.90;;;;;;5024460;28;20029;-42
2023/06/25 11:54:51;;;;;;;3.40;3.10;;;29.20;87.20;;;;;;5025080;28;20640;-42
2023/06/25 11:57:17;;;;;;;3.30;3.00;;;29.20;87.80;;;;;;5024779;28;20136;-43
2023/06/25 11:59:43;;;;;;;2.75;2.55;;;29.30;88.50;;;;;;5025578;28;20032;-43
2023/06/25 12:02:10;;;;;;;2.65;2.45;;;29.30;88.30;;;;;;5025841;28;20843;-43
2023/06/25 12:04:36;;;;;;;2.90;2.60;;;29.30;88.20;;;;;;5025401;28;20128;-43
2023/06/25 12:07:03;;;;;;;2.97;2.78;;;29.40;87.90;;;;;;5022694;28;20053;-43
2023/06/25 12:09:28;;;;;;;2.70;2.50;;;29.40;88.20;;;;;;5024390;28;20095;-42
2023/06/25 12:12:01;;;;;;;3.40;2.90;;;29.40;87.90;;;;;;5025207;28;20034;-44
2023/06/25 12:14:27;;;;;;;3.60;3.25;;;29.40;87.80;;;;;;5024219;28;20018;-42
2023/06/25 12:16:55;;;;;;;3.35;3.05;;;29.50;87.30;;;;;;5026261;28;20033;-43
2023/06/25 12:19:27;;;;;;;3.30;3.00;;;29.50;87.20;;;;;;5025179;28;20022;-42
2023/06/25 12:21:52;;;;;;;3.50;3.20;;;29.50;87.40;;;;;;5024358;28;20120;-43
2023/06/25 12:24:18;;;;;;;3.22;2.92;;;29.50;87.20;;;;;;5025010;28;20108;-43
2023/06/25 12:26:44;;;;;;;4.20;3.47;;;29.60;87.50;;;;;;5024615;28;20131;-43
2023/06/25 12:29:12;;;;;;;3.50;3.30;;;29.60;87.70;;;;;;5025529;28;20013;-43
2023/06/25 12:31:38;;;;;;;3.60;3.30;;;29.60;86.90;;;;;;5024822;28;20029;-42
2023/06/25 12:34:03;;;;;;;4.55;3.35;;;29.70;86.90;;;;;;5023179;28;20036;-42
2023/06/25 12:36:29;;;;;;;3.15;2.95;;;29.70;86.40;;;;;;5024667;28;20180;-43
2023/06/25 12:38:57;;;;;;;3.35;2.70;;;29.80;86.30;;;;;;5025355;28;20025;-43
2023/06/25 12:41:23;;;;;;;4.68;3.28;;;29.90;87.20;;;;;;5023686;28;20551;-42
2023/06/25 12:43:48;;;;;;;3.25;2.95;;;29.90;85.20;;;;;;5023704;28;20109;-43
2023/06/25 12:46:14;;;;;;;2.72;2.53;;;30.00;85.20;;;;;;5025032;28;20037;-43
2023/06/25 12:48:39;;;;;;;3.60;3.28;;;30.00;86.00;;;;;;5024375;28;20017;-43